Flight Track Log - Related Links

Times and Time Zones

All times are in EDT time to prevent confusion due to time zone crossing. See the N122CL flight status page for this flight to view local times or setup timezone preferences in your user account.

Time Position Orientation Groundspeed Altitude Reporting Facility
EDT Latitude Longitude Course Direction KTS MPH feet Rate Location/Type
Thu 12:54:43 PM 34.3833 -118.6500 335° Northwest 151 174 8,000  Level Southern California TRACON
Thu 12:55:57 PM 34.4294 -118.6761 335° Northwest 155 178 8,700 618 Climbing Los Angeles Center
Thu 12:56:59 PM 34.4803 -118.6947 343° North 159 183 9,400 677 Climbing Los Angeles Center
Thu 12:58:01 PM 34.5217 -118.7164 337° Northwest 161 185 10,100 532 Climbing Los Angeles Center
Thu 12:59:03 PM 34.5628 -118.7414 333° Northwest 164 189 10,500 194 Climbing Los Angeles Center
Thu 01:00:00 PM 34.3809 -118.5844 335° Northwest  Level Estimated
Thu 01:00:05 PM 34.6056 -118.7636 337° Northwest 167 192 10,500  Level Los Angeles Center
Thu 01:01:07 PM 34.6506 -118.7897 334° Northwest 178 205 10,500  Level Los Angeles Center
Thu 01:02:09 PM 34.6950 -118.8114 338° Northwest 173 199 10,500  Level Los Angeles Center
Thu 01:03:11 PM 34.7467 -118.8403 335° Northwest 173 199 10,500  Level Los Angeles Center
Thu 01:04:13 PM 34.7906 -118.8653 335° Northwest 174 200 10,500 48 Level Los Angeles Center
Thu 01:05:15 PM 34.8342 -118.8886 336° Northwest 173 199 10,600 48 Climbing Los Angeles Center
Thu 01:06:18 PM 34.8778 -118.9133 335° Northwest 174 200 10,600 -48 Level Los Angeles Center
Thu 01:07:20 PM 34.9283 -118.9406 336° Northwest 172 198 10,500 -48 Descending Los Angeles Center
Thu 01:08:22 PM 34.9733 -118.9653 336° Northwest 175 201 10,500  Level Los Angeles Center
Thu 01:09:24 PM 35.0172 -118.9894 336° Northwest 175 201 10,500  Level Los Angeles Center
Thu 01:10:26 PM 35.0603 -119.0147 334° Northwest 173 199 10,500  Level Los Angeles Center
Thu 01:11:28 PM 35.1050 -119.0381 337° Northwest 174 200 10,500  Level Los Angeles Center
Thu 01:12:30 PM 35.1486 -119.0636 334° Northwest 174 200 10,500  Level Los Angeles Center
Thu 01:13:32 PM 35.2019 -119.0911 337° Northwest 174 200 10,500  Level Los Angeles Center
Thu 01:14:34 PM 35.2450 -119.1164 334° Northwest 173 199 10,500  Level Los Angeles Center
Thu 01:15:37 PM 35.2894 -119.1414 335° Northwest 175 201 10,500  Level Los Angeles Center
Thu 01:16:39 PM 35.3353 -119.1658 336° Northwest 177 204 10,500  Level Los Angeles Center
Thu 01:17:41 PM 35.3789 -119.1911 335° Northwest 176 203 10,500  Level Los Angeles Center
Thu 01:18:43 PM 35.4306 -119.2214 334° Northwest 173 199 10,500  Level Los Angeles Center
Thu 01:20:00 PM 35.4737 -119.2442 337° Northwest  Level FlightAware Approximate
Thu 01:20:41 PM 35.5119 -119.2658 337° Northwest 176 203 10,500  Level Oakland Center
Thu 01:21:43 PM 35.5650 -119.2961 335° Northwest 176 203 10,500 49 Level Oakland Center
Thu 01:22:44 PM 35.6094 -119.3214 335° Northwest 176 203 10,600  Climbing Oakland Center
Thu 01:23:46 PM 35.6542 -119.3464 336° Northwest 176 203 10,500 -49 Descending Oakland Center
Thu 01:24:47 PM 35.6989 -119.3717 335° Northwest 177 204 10,500  Level Oakland Center
Thu 01:25:49 PM 35.7439 -119.3969 335° Northwest 177 204 10,500 49 Level Oakland Center
Thu 01:26:50 PM 35.7886 -119.4222 335° Northwest 177 204 10,600 49 Climbing Oakland Center
Thu 01:27:52 PM 35.8333 -119.4478 335° Northwest 177 204 10,600 -48 Level Oakland Center
Thu 01:28:54 PM 35.8869 -119.4789 335° Northwest 178 205 10,500  Descending Oakland Center
Thu 01:29:55 PM 35.9322 -119.5042 336° Northwest 178 205 10,600 49 Climbing Oakland Center
Thu 01:30:57 PM 35.9781 -119.5303 335° Northwest 179 206 10,600 -49 Level Oakland Center
Thu 01:31:58 PM 36.0242 -119.5544 337° Northwest 180 207 10,500  Descending Oakland Center
Thu 01:33:00 PM 36.0694 -119.5808 335° Northwest 180 207 10,600 49 Climbing Oakland Center
Thu 01:34:01 PM 36.1200 -119.6061 338° Northwest 180 207 10,600  Level Oakland Center
Thu 01:35:03 PM 36.1614 -119.6306 335° Northwest 180 207 10,600 -48 Level Oakland Center
Thu 01:36:05 PM 36.2150 -119.6642 333° Northwest 181 208 10,500  Descending Oakland Center
Thu 01:37:06 PM 36.2608 -119.6906 335° Northwest 183 211 10,600  Climbing Oakland Center
Thu 01:38:08 PM 36.3064 -119.7153 336° Northwest 181 208 10,500 -49 Descending Oakland Center
Thu 01:39:09 PM 36.3553 -119.7431 335° Northwest 183 211 10,500 49 Level Oakland Center
Thu 01:40:11 PM 36.3983 -119.7686 334° Northwest 182 209 10,600 48 Climbing Oakland Center
Thu 01:41:13 PM 36.4436 -119.7956 334° Northwest 182 209 10,600  Level Oakland Center
Thu 01:42:14 PM 36.4894 -119.8225 335° Northwest 182 209 10,600 -49 Level Oakland Center
Thu 01:43:16 PM 36.5456 -119.8547 335° Northwest 185 213 10,500  Descending Oakland Center
Thu 01:44:18 PM 36.5919 -119.8817 335° Northwest 184 212 10,600  Climbing Oakland Center
Thu 01:45:19 PM 36.6389 -119.9092 335° Northwest 186 214 10,500 -49 Descending Oakland Center
Thu 01:46:21 PM 36.6897 -119.9381 336° Northwest 189 217 10,500  Level Oakland Center
Thu 01:47:22 PM 36.7339 -119.9647 334° Northwest 189 217 10,500  Level Oakland Center
Thu 01:48:24 PM 36.7864 -119.9964 334° Northwest 189 217 10,500  Level Oakland Center
Thu 01:49:25 PM 36.8331 -120.0236 335° Northwest 189 217 10,500 49 Level Oakland Center
Thu 01:50:27 PM 36.8839 -120.0536 335° Northwest 189 217 10,600  Climbing Oakland Center
Thu 01:51:29 PM 36.9331 -120.0831 334° Northwest 189 217 10,500 -49 Descending Oakland Center
Thu 01:52:30 PM 36.9811 -120.1114 335° Northwest 192 221 10,500  Level Oakland Center
Thu 01:53:32 PM 37.0281 -120.1397 334° Northwest 188 216 10,500  Level Oakland Center
Thu 01:54:34 PM 37.0778 -120.1692 335° Northwest 187 215 10,500  Level Oakland Center
Thu 01:55:35 PM 37.1286 -120.1986 335° Northwest 188 216 10,500  Level Oakland Center
Thu 01:57:38 PM 37.2239 -120.2561 334° Northwest 192 221 10,500  Level Oakland Center
Thu 01:58:40 PM 37.2719 -120.2847 335° Northwest 192 221 10,500  Level Oakland Center
Thu 01:59:42 PM 37.3197 -120.3128 335° Northwest 191 220 10,500  Level Oakland Center
Thu 02:00:43 PM 37.3669 -120.3431 333° Northwest 197 227 10,500  Level Oakland Center
Thu 02:01:45 PM 37.4147 -120.3711 335° Northwest 190 219 10,500  Level Oakland Center
Thu 02:02:46 PM 37.4625 -120.4014 333° Northwest 192 221 10,500  Level Oakland Center
Thu 02:03:48 PM 37.5208 -120.4358 335° Northwest 196 226 10,500  Level Oakland Center
Thu 02:04:49 PM 37.5667 -120.4667 332° Northwest 194 223 10,500  Level Northern Cal TRACON
Thu 02:05:44 PM 37.6167 -120.4833 345° North 195 224 10,500  Level Northern Cal TRACON
Thu 02:06:43 PM 37.6667 -120.5167 332° Northwest 194 223 10,500  Level Northern Cal TRACON
Thu 02:07:44 PM 37.7167 -120.5500 332° Northwest 194 223 10,500  Level Northern Cal TRACON
Thu 02:08:44 PM 37.7667 -120.5667 345° North 197 227 10,500  Level Northern Cal TRACON
Thu 02:09:44 PM 37.8167 -120.6000 332° Northwest 197 227 10,500  Level Northern Cal TRACON
Thu 02:10:38 PM 37.8500 -120.6333 322° Northwest 196 226 10,500  Level Northern Cal TRACON
Thu 02:11:38 PM 37.9000 -120.6667 332° Northwest 193 222 10,500  Level Northern Cal TRACON
Thu 02:12:44 PM 37.9667 -120.7000 338° Northwest 194 223 10,500  Level Northern Cal TRACON
Thu 02:13:38 PM 38.0000 -120.7167 338° Northwest 196 226 10,500  Level Northern Cal TRACON
Thu 02:14:38 PM 38.0500 -120.7500 332° Northwest 196 226 10,500  Level Northern Cal TRACON
Thu 02:15:38 PM 38.1000 -120.7833 332° Northwest 199 229 10,500  Level Northern Cal TRACON
Thu 02:16:38 PM 38.1500 -120.8167 332° Northwest 198 228 10,500  Level Northern Cal TRACON
Thu 02:17:08 PM 38.1703 -120.8181 357° North 196 226 10,500  Level Oakland Center
Thu 02:18:10 PM 38.2194 -120.8481 334° Northwest 196 226 10,500 48 Level Oakland Center
Thu 02:19:12 PM 38.2692 -120.8789 334° Northwest 198 228 10,600  Climbing Oakland Center
Thu 02:20:13 PM 38.3278 -120.9147 334° Northwest 195 224 10,500 -49 Descending Oakland Center
Thu 02:21:15 PM 38.3767 -120.9450 334° Northwest 196 226 10,500  Level Oakland Center
Thu 02:22:16 PM 38.4261 -120.9756 334° Northwest 199 229 10,500  Level Oakland Center
Thu 02:23:18 PM 38.4744 -121.0053 334° Northwest 196 226 10,500  Level Oakland Center
Thu 02:24:20 PM 38.5233 -121.0356 334° Northwest 196 226 10,500  Level Oakland Center
Thu 02:25:21 PM 38.5722 -121.0650 335° Northwest 196 226 10,500  Level Oakland Center
Thu 02:26:23 PM 38.6206 -121.0942 335° Northwest 195 224 10,500 49 Level Oakland Center
Thu 02:27:24 PM 38.6786 -121.1306 334° Northwest 195 224 10,600  Climbing Oakland Center
Thu 02:28:26 PM 38.7272 -121.1606 334° Northwest 195 224 10,500 -48 Descending Oakland Center
Thu 02:29:28 PM 38.7758 -121.1900 335° Northwest 194 223 10,500  Level Oakland Center
Thu 02:30:33 PM 38.8333 -121.2333 330° Northwest 194 223 10,500 -46 Level Northern Cal TRACON
Thu 02:31:38 PM 38.8833 -121.2500 345° North 190 219 10,400 -48 Descending Northern Cal TRACON
Thu 02:32:39 PM 38.9333 -121.2833 333° Northwest 188 216 10,400  Level Northern Cal TRACON
Thu 02:33:39 PM 38.9833 -121.3167 333° Northwest 184 212 10,400  Level Northern Cal TRACON
Thu 02:34:39 PM 39.0333 -121.3500 333° Northwest 186 214 10,400  Level Northern Cal TRACON
Thu 02:35:39 PM 39.0667 -121.3833 322° Northwest 186 214 10,400  Level Northern Cal TRACON
Thu 02:36:39 PM 39.1167 -121.4000 346° North 185 213 10,400 50 Level Northern Cal TRACON
Thu 02:37:39 PM 39.1667 -121.4333 333° Northwest 186 214 10,500  Climbing Northern Cal TRACON
Thu 02:38:39 PM 39.2167 -121.4667 333° Northwest 188 216 10,400 -50 Descending Northern Cal TRACON
Thu 02:39:39 PM 39.2667 -121.4833 346° North 185 213 10,400  Level Northern Cal TRACON
Thu 02:40:39 PM 39.3000 -121.5167 322° Northwest 184 212 10,400 47 Level Northern Cal TRACON
Thu 02:41:48 PM 39.3553 -121.5517 334° Northwest 184 212 10,500 46 Climbing Oakland Center
Thu 02:42:49 PM 39.4014 -121.5819 333° Northwest 185 213 10,500  Level Oakland Center
Thu 02:43:50 PM 39.4483 -121.6100 335° Northwest 186 214 10,500  Level Oakland Center
Thu 02:44:52 PM 39.4978 -121.6419 334° Northwest 184 212 10,500  Level Oakland Center
Thu 02:45:54 PM 39.5436 -121.6717 333° Northwest 184 212 10,500  Level Oakland Center
Thu 02:46:55 PM 39.5897 -121.7017 333° Northwest 185 213 10,500  Level Oakland Center
Thu 02:47:57 PM 39.6356 -121.7303 334° Northwest 184 212 10,500  Level Oakland Center
Thu 02:48:59 PM 39.6819 -121.7597 334° Northwest 185 213 10,500  Level Oakland Center
Thu 02:50:00 PM 39.7278 -121.7889 334° Northwest 183 211 10,500 -195 Level Oakland Center
Thu 02:51:02 PM 39.7758 -121.8211 333° Northwest 190 219 10,100 -585 Descending Oakland Center
Thu 02:52:03 PM 39.8361 -121.8558 336° Northwest 198 228 9,300 -787 Descending Oakland Center

Login

Don't have an account? Register now (free) for customized features, flight alerts, and more!